Time;durP1;ratioP1;P1;durP2;ratioP2;P2;SDS_P1;SDS_P2;PMS_P1;PMS_P2;Temp;Humidity;BMP_temperature;BMP_pressure;BME280_temperature;BME280_humidity;BME280_pressure;Samples;Min_cycle;Max_cycle;Signal;HPM_P1;HPM_P2
2022/01/30 00:00:57;;;;;;;66.15;38.53;;;;;;;-144.47;100.00;61586.06;4970259;28;20387;-79
2022/01/30 00:03:23;;;;;;;60.13;37.10;;;;;;;-144.47;100.00;61586.06;4981198;28;20035;-79
2022/01/30 00:05:48;;;;;;;67.45;37.13;;;;;;;-144.47;100.00;61586.06;4958983;28;20035;-77
2022/01/30 00:08:14;;;;;;;66.97;36.90;;;;;;;-144.47;100.00;61586.06;4973085;28;20442;-79
2022/01/30 00:10:40;;;;;;;62.00;37.60;;;;;;;-144.47;100.00;61586.06;4963825;28;20030;-77
2022/01/30 00:13:11;;;;;;;71.03;38.60;;;;;;;-144.47;100.00;61586.06;4964340;28;20042;-78
2022/01/30 00:15:55;;;;;;;70.85;38.90;;;;;;;-144.47;100.00;61586.06;4962124;28;20066;-77
2022/01/30 00:18:40;;;;;;;73.00;40.30;;;;;;;-144.47;100.00;61586.06;4966289;28;20070;-78
2022/01/30 00:23:33;;;;;;;66.40;39.20;;;;;;;-144.47;100.00;61586.06;4963733;28;20043;-77
2022/01/30 00:25:59;;;;;;;69.82;39.15;;;;;;;-144.47;100.00;61586.06;4964511;28;20373;-78
2022/01/30 00:28:26;;;;;;;67.53;39.67;;;;;;;-144.47;100.00;61586.06;4961695;28;20035;-78
2022/01/30 00:30:53;;;;;;;64.28;38.00;;;;;;;-144.47;100.00;61586.06;4979779;28;20078;-78
2022/01/30 00:33:18;;;;;;;63.78;38.33;;;;;;;-144.47;100.00;61586.06;4961103;28;20052;-78
2022/01/30 00:35:44;;;;;;;67.55;40.05;;;;;;;-144.47;100.00;61586.06;4962839;28;20031;-76
2022/01/30 00:38:15;;;;;;;63.83;38.92;;;;;;;-144.47;100.00;61586.06;4964518;28;20114;-79
2022/01/30 00:40:42;;;;;;;66.88;39.33;;;;;;;-144.47;100.00;61586.06;4958797;28;20067;-78
2022/01/30 00:43:09;;;;;;;65.55;39.40;;;;;;;-144.47;100.00;61586.06;4975472;28;20059;-79
2022/01/30 00:45:34;;;;;;;65.55;39.00;;;;;;;-144.47;100.00;61586.06;4962519;28;20035;-76
2022/01/30 00:48:01;;;;;;;66.70;40.50;;;;;;;-144.47;100.00;61586.06;4962804;28;20030;-78
2022/01/30 00:50:26;;;;;;;70.90;39.50;;;;;;;-144.47;100.00;61586.06;4976444;28;20047;-79
2022/01/30 00:52:55;;;;;;;71.82;39.80;;;;;;;-144.47;100.00;61586.06;4978628;28;20050;-79
2022/01/30 00:55:22;;;;;;;67.03;38.90;;;;;;;-144.47;100.00;61586.06;4960453;28;20050;-79
2022/01/30 00:57:47;;;;;;;69.05;39.05;;;;;;;-144.47;100.00;61586.06;4951201;28;20030;-78
2022/01/30 01:00:15;;;;;;;71.03;39.85;;;;;;;-144.47;100.00;61586.06;4979624;28;20388;-78
2022/01/30 01:02:41;;;;;;;67.70;39.53;;;;;;;-144.47;100.00;61586.06;4971269;28;20506;-78
2022/01/30 01:05:08;;;;;;;74.85;40.13;;;;;;;-144.47;100.00;61586.06;4978501;28;20034;-77
2022/01/30 01:07:34;;;;;;;70.80;39.80;;;;;;;-144.47;100.00;61586.06;4972281;28;20031;-79
2022/01/30 01:10:12;;;;;;;65.63;39.92;;;;;;;-144.47;100.00;61586.06;4993099;28;20034;-78
2022/01/30 01:23:39;;;;;;;69.13;38.35;;;;;;;-144.47;100.00;61586.06;4966061;28;20042;-78
2022/01/30 01:26:05;;;;;;;63.17;37.70;;;;;;;-144.47;100.00;61586.06;4978480;28;20031;-77
2022/01/30 01:28:30;;;;;;;69.00;40.05;;;;;;;-144.47;100.00;61586.06;4963751;28;20050;-79
2022/01/30 01:30:57;;;;;;;66.15;38.50;;;;;;;-144.47;100.00;61586.06;4961975;28;20388;-78
2022/01/30 01:33:28;;;;;;;67.75;39.38;;;;;;;-144.47;100.00;61586.06;4968860;28;20039;-78
2022/01/30 01:35:53;;;;;;;;;;;;;;;-144.47;100.00;61586.06;4966335;28;20035;-78
2022/01/30 01:38:20;;;;;;;68.07;38.70;;;;;;;-144.47;100.00;61586.06;4971632;28;19941;-78
2022/01/30 01:40:51;;;;;;;74.35;42.35;;;;;;;-144.47;100.00;61586.06;4963816;28;20435;-77
2022/01/30 01:43:17;;;;;;;;;;;;;;;-144.47;100.00;61586.06;4966827;28;20061;-77
2022/01/30 01:45:43;;;;;;;76.20;41.13;;;;;;;-144.47;100.00;61586.06;4994889;28;20283;-77
2022/01/30 01:48:13;;;;;;;73.25;40.70;;;;;;;-144.47;100.00;61586.06;4960812;28;20037;-78
2022/01/30 01:50:43;;;;;;;;;;;;;;;-144.47;100.00;61586.06;4961534;28;20049;-77
2022/01/30 01:53:14;;;;;;;;;;;;;;;-144.47;100.00;61586.06;4974162;28;19918;-77
2022/01/30 01:55:43;;;;;;;74.50;40.03;;;;;;;-144.47;100.00;61586.06;4958544;28;20367;-77
2022/01/30 01:58:16;;;;;;;76.40;41.28;;;;;;;-144.47;100.00;61586.06;4980541;28;20058;-78
2022/01/30 02:01:02;;;;;;;72.22;39.72;;;;;;;-144.47;100.00;61586.06;4968292;28;20384;-77
2022/01/30 02:03:28;;;;;;;72.13;40.60;;;;;;;-144.47;100.00;61586.06;4963040;28;20436;-80
2022/01/30 02:05:59;;;;;;;71.88;39.75;;;;;;;-144.47;100.00;61586.06;4962125;28;20047;-78
2022/01/30 02:11:05;;;;;;;72.53;41.00;;;;;;;-144.47;100.00;61586.06;4978523;28;20031;-77
2022/01/30 02:24:24;;;;;;;76.30;42.50;;;;;;;-144.47;100.00;61586.06;4952865;28;20090;-72
2022/01/30 02:26:49;;;;;;;80.55;42.92;;;;;;;-144.47;100.00;61586.06;4951686;29;20483;-73
2022/01/30 02:29:15;;;;;;;72.80;42.00;;;;;;;-144.47;100.00;61586.06;4953160;29;20031;-72
2022/01/30 02:31:42;;;;;;;80.30;44.03;;;;;;;-144.47;100.00;61586.06;4970031;28;20043;-72
2022/01/30 02:34:08;;;;;;;77.47;44.30;;;;;;;-144.47;100.00;61586.06;4953256;29;20399;-73
2022/01/30 02:36:45;;;;;;;75.65;43.38;;;;;;;-144.47;100.00;61586.06;4954394;28;20035;-73
2022/01/30 02:39:11;;;;;;;76.97;41.35;;;;;;;-144.47;100.00;61586.06;4953765;29;20046;-74
2022/01/30 02:41:38;;;;;;;75.80;41.28;;;;;;;-144.47;100.00;61586.06;4952900;29;20515;-74
2022/01/30 02:44:32;;;;;;;70.88;41.55;;;;;;;-144.47;100.00;61586.06;4953129;29;20039;-74
2022/01/30 02:46:56;;;;;;;69.60;37.33;;;;;;;-144.47;100.00;61586.06;4961491;28;20044;-74
2022/01/30 02:52:01;;;;;;;68.55;38.53;;;;;;;-144.47;100.00;61586.06;4964880;28;20035;-73
2022/01/30 02:54:29;;;;;;;71.43;39.08;;;;;;;-144.47;100.00;61586.06;4965778;28;20043;-73
2022/01/30 02:56:55;;;;;;;65.60;37.85;;;;;;;-144.47;100.00;61586.06;4954244;28;20035;-73
2022/01/30 02:59:21;;;;;;;72.75;38.10;;;;;;;-144.47;100.00;61586.06;4969073;28;20400;-72
2022/01/30 03:01:47;;;;;;;74.68;41.92;;;;;;;-144.47;100.00;61586.06;4952554;28;20090;-74
2022/01/30 03:04:12;;;;;;;73.88;39.33;;;;;;;-144.47;100.00;61586.06;4953838;28;20110;-73
2022/01/30 03:06:39;;;;;;;75.38;40.58;;;;;;;-144.47;100.00;61586.06;4952784;29;20274;-73
2022/01/30 03:09:08;;;;;;;69.00;38.88;;;;;;;-144.47;100.00;61586.06;4951703;28;20074;-73
2022/01/30 03:11:34;;;;;;;71.18;39.92;;;;;;;-144.47;100.00;61586.06;4952468;29;20198;-72
2022/01/30 03:14:00;;;;;;;68.55;38.92;;;;;;;-144.47;100.00;61586.06;4952517;28;20114;-74
2022/01/30 03:16:26;;;;;;;74.05;41.03;;;;;;;-144.47;100.00;61586.06;4952175;29;20031;-73
2022/01/30 03:18:52;;;;;;;76.43;40.85;;;;;;;-144.47;100.00;61586.06;4952738;29;20038;-74
2022/01/30 03:21:18;;;;;;;71.22;42.25;;;;;;;-144.47;100.00;61586.06;4952459;29;20403;-74
2022/01/30 03:23:44;;;;;;;75.03;40.40;;;;;;;-144.47;100.00;61586.06;4951951;29;20043;-73
2022/01/30 03:26:12;;;;;;;73.00;39.67;;;;;;;-144.47;100.00;61586.06;4951783;28;20031;-74
2022/01/30 03:29:05;;;;;;;68.28;39.08;;;;;;;-144.47;100.00;61586.06;4950211;28;20035;-75
2022/01/30 03:31:34;;;;;;;71.38;40.20;;;;;;;-144.47;100.00;61586.06;4952287;29;20065;-72
2022/01/30 03:34:00;;;;;;;69.32;38.72;;;;;;;-144.47;100.00;61586.06;4952415;29;20030;-73
2022/01/30 03:36:35;;;;;;;74.25;40.72;;;;;;;-144.47;100.00;61586.06;4952382;29;20447;-72
2022/01/30 03:39:02;;;;;;;68.63;40.00;;;;;;;-144.47;100.00;61586.06;4952101;29;20043;-72
2022/01/30 03:41:28;;;;;;;73.00;39.50;;;;;;;-144.47;100.00;61586.06;4951722;29;20035;-73
2022/01/30 03:43:53;;;;;;;70.47;38.10;;;;;;;-144.47;100.00;61586.06;4952117;28;20043;-73
2022/01/30 03:46:21;;;;;;;69.07;38.47;;;;;;;-144.47;100.00;61586.06;4951823;29;20491;-73
2022/01/30 03:48:46;;;;;;;71.47;38.80;;;;;;;-144.47;100.00;61586.06;4952099;28;20212;-73
2022/01/30 03:51:23;;;;;;;68.50;39.00;;;;;;;-144.47;100.00;61586.06;4940768;28;20086;-73
2022/01/30 03:53:48;;;;;;;68.00;39.80;;;;;;;-144.47;100.00;61586.06;4953090;29;20526;-73
2022/01/30 03:56:14;;;;;;;72.13;39.90;;;;;;;-144.47;100.00;61586.06;4951715;29;20487;-73
2022/01/30 03:58:40;;;;;;;74.65;40.90;;;;;;;-144.47;100.00;61586.06;4951791;28;20035;-73
2022/01/30 04:01:10;;;;;;;72.00;39.60;;;;;;;-144.47;100.00;61586.06;4951670;29;20396;-71
2022/01/30 04:03:36;;;;;;;71.80;39.38;;;;;;;-144.47;100.00;61586.06;4952887;28;20043;-74
2022/01/30 04:06:06;;;;;;;75.03;40.95;;;;;;;-144.47;100.00;61586.06;4951851;28;20045;-73
2022/01/30 04:08:32;;;;;;;69.13;38.70;;;;;;;-144.47;100.00;61586.06;4951348;29;20091;-74
2022/01/30 04:11:10;;;;;;;67.03;38.58;;;;;;;-144.47;100.00;61586.06;4951520;29;20032;-74
2022/01/30 04:13:48;;;;;;;74.35;40.15;;;;;;;-144.47;100.00;61586.06;4951457;28;20054;-73
2022/01/30 04:16:30;;;;;;;71.55;39.67;;;;;;;-144.47;100.00;61586.06;4947663;29;20098;-72
2022/01/30 04:19:17;;;;;;;71.93;39.63;;;;;;;-144.47;100.00;61586.06;4948738;28;20031;-73
2022/01/30 04:22:08;;;;;;;65.40;39.80;;;;;;;-144.47;100.00;61586.06;4960297;28;20099;-74
2022/01/30 04:24:54;;;;;;;70.25;39.15;;;;;;;-144.47;100.00;61586.06;4940664;28;20051;-73
2022/01/30 04:27:55;;;;;;;;;;;;;;;-144.47;100.00;61586.06;4951822;29;20039;-74
2022/01/30 04:30:51;;;;;;;64.82;36.83;;;;;;;-144.47;100.00;61586.06;4951214;28;19918;-73
2022/01/30 04:33:30;;;;;;;69.22;39.10;;;;;;;-144.47;100.00;61586.06;4951167;28;20047;-74
2022/01/30 04:36:15;;;;;;;68.45;39.40;;;;;;;-144.47;100.00;61586.06;4951296;28;20152;-73
2022/01/30 04:39:36;;;;;;;74.15;38.03;;;;;;;-144.47;100.00;61586.06;4949979;29;20047;-73
2022/01/30 04:52:02;;;;;;;72.10;40.63;;;;;;;-144.47;100.00;61586.06;4948313;29;20051;-73
2022/01/30 05:06:08;;;;;;;71.85;39.65;;;;;;;-144.47;100.00;61586.06;4942683;29;20485;-73
2022/01/30 05:08:42;;;;;;;70.55;39.85;;;;;;;-144.47;100.00;61586.06;4950062;29;20035;-73
2022/01/30 05:11:19;;;;;;;68.90;39.78;;;;;;;-144.47;100.00;61586.06;4947522;29;20547;-71
2022/01/30 05:13:54;;;;;;;74.07;40.03;;;;;;;-144.47;100.00;61586.06;4948514;29;20039;-73
2022/01/30 05:16:30;;;;;;;66.78;38.80;;;;;;;-144.47;100.00;61586.06;4951275;28;20221;-73
2022/01/30 05:19:05;;;;;;;69.40;39.47;;;;;;;-144.47;100.00;61586.06;4949883;29;20035;-73
2022/01/30 05:21:35;;;;;;;65.88;39.55;;;;;;;-144.47;100.00;61586.06;4949527;29;20031;-74
2022/01/30 05:24:34;;;;;;;65.85;38.70;;;;;;;-144.47;100.00;61586.06;4948208;29;20043;-73
2022/01/30 05:27:06;;;;;;;64.60;36.20;;;;;;;-144.47;100.00;61586.06;4950067;29;20035;-72
2022/01/30 05:29:38;;;;;;;73.20;40.10;;;;;;;-144.47;100.00;61586.06;4951274;28;20047;-73
2022/01/30 05:32:42;;;;;;;67.70;37.40;;;;;;;-144.47;100.00;61586.06;4956834;28;20503;-73
2022/01/30 05:35:40;;;;;;;68.07;39.67;;;;;;;-144.47;100.00;61586.06;4958771;28;20527;-73
2022/01/30 05:38:25;;;;;;;67.72;37.38;;;;;;;-144.47;100.00;61586.06;4953801;28;20046;-72
2022/01/30 05:41:11;;;;;;;69.00;38.22;;;;;;;-144.47;100.00;61586.06;4957260;28;20039;-74
2022/01/30 05:43:58;;;;;;;70.85;37.30;;;;;;;-144.47;100.00;61586.06;4954237;28;20134;-72
2022/01/30 05:46:53;;;;;;;66.30;38.40;;;;;;;-144.47;100.00;61586.06;4956970;28;20183;-72
2022/01/30 05:49:48;;;;;;;69.97;38.70;;;;;;;-144.47;100.00;61586.06;4937395;29;20115;-72
2022/01/30 05:52:37;;;;;;;68.65;38.22;;;;;;;-144.47;100.00;61586.06;4952335;28;20050;-74
2022/01/30 05:55:11;;;;;;;68.85;36.22;;;;;;;-144.47;100.00;61586.06;4958902;28;20035;-73
2022/01/30 05:57:36;;;;;;;63.28;36.13;;;;;;;-144.47;100.00;61586.06;4941854;28;20050;-72
2022/01/30 06:00:04;;;;;;;58.53;35.22;;;;;;;-144.47;100.00;61586.06;4957896;28;20039;-73
2022/01/30 06:02:48;;;;;;;60.75;34.55;;;;;;;-144.47;100.00;61586.06;4951047;28;20050;-73
2022/01/30 06:05:17;;;;;;;61.60;35.47;;;;;;;-144.47;100.00;61586.06;4948996;28;20032;-73
2022/01/30 06:07:50;;;;;;;62.03;36.17;;;;;;;-144.47;100.00;61586.06;4950530;28;20042;-74
2022/01/30 06:10:16;;;;;;;66.43;36.13;;;;;;;-144.47;100.00;61586.06;4949274;28;20031;-74
2022/01/30 06:12:41;;;;;;;64.13;37.17;;;;;;;-144.47;100.00;61586.06;4950822;28;20146;-73
2022/01/30 06:15:07;;;;;;;58.72;35.58;;;;;;;-144.47;100.00;61586.06;4965618;28;20475;-72
2022/01/30 06:17:33;;;;;;;58.30;34.22;;;;;;;-144.47;100.00;61586.06;4951142;29;20801;-73
2022/01/30 06:19:59;;;;;;;63.03;36.33;;;;;;;-144.47;100.00;61586.06;4951048;28;20039;-74
2022/01/30 06:22:56;;;;;;;59.45;36.33;;;;;;;-144.47;100.00;61586.06;4944608;28;20122;-72
2022/01/30 06:25:40;;;;;;;60.75;35.85;;;;;;;-144.47;100.00;61586.06;4951050;29;20038;-73
2022/01/30 06:28:24;;;;;;;59.20;34.47;;;;;;;-144.47;100.00;61586.06;4943391;29;20123;-73
2022/01/30 06:30:50;;;;;;;55.67;34.28;;;;;;;-144.47;100.00;61586.06;4951146;28;20466;-74
2022/01/30 06:33:34;;;;;;;58.35;33.10;;;;;;;-144.47;100.00;61586.06;4948809;29;20102;-73
2022/01/30 06:36:18;;;;;;;56.78;33.88;;;;;;;-144.47;100.00;61586.06;4946432;29;20600;-73
2022/01/30 06:38:52;;;;;;;60.22;36.28;;;;;;;-144.47;100.00;61586.06;4922848;29;20058;-73
2022/01/30 06:41:42;;;;;;;;;;;;;;;-144.47;100.00;61586.06;4947945;28;20046;-72
2022/01/30 06:44:13;;;;;;;51.65;32.05;;;;;;;-144.47;100.00;61586.06;4966651;28;19938;-74
2022/01/30 06:46:57;;;;;;;58.80;33.38;;;;;;;-144.47;100.00;61586.06;4951544;29;20122;-74
2022/01/30 06:49:45;;;;;;;61.53;35.55;;;;;;;-144.47;100.00;61586.06;4952507;28;20444;-72
2022/01/30 06:52:44;;;;;;;59.33;34.55;;;;;;;-144.47;100.00;61586.06;4944393;28;20098;-75
2022/01/30 06:55:44;;;;;;;59.90;34.60;;;;;;;-144.47;100.00;61586.06;4945895;28;20043;-75
2022/01/30 06:58:28;;;;;;;63.00;34.55;;;;;;;-144.47;100.00;61586.06;4951146;29;20117;-75
2022/01/30 07:01:00;;;;;;;58.08;34.42;;;;;;;-144.47;100.00;61586.06;4954120;28;20046;-75
2022/01/30 07:03:54;;;;;;;57.65;33.67;;;;;;;-144.47;100.00;61586.06;4942661;28;20067;-73
2022/01/30 07:06:52;;;;;;;54.03;32.83;;;;;;;-144.47;100.00;61586.06;4950164;29;20490;-74
2022/01/30 07:09:18;;;;;;;57.53;33.58;;;;;;;-144.47;100.00;61586.06;4945327;29;20054;-71
2022/01/30 07:11:44;;;;;;;58.38;33.95;;;;;;;-144.47;100.00;61586.06;4968577;28;20423;-73
2022/01/30 07:14:09;;;;;;;61.95;35.67;;;;;;;-144.47;100.00;61586.06;4968255;28;20042;-73
2022/01/30 07:16:34;;;;;;;56.33;31.98;;;;;;;-144.47;100.00;61586.06;4952130;29;20038;-73
2022/01/30 07:19:00;;;;;;;53.33;31.85;;;;;;;-144.47;100.00;61586.06;4953657;28;20035;-72
2022/01/30 07:21:26;;;;;;;58.28;33.47;;;;;;;-144.47;100.00;61586.06;4951411;28;20032;-73
2022/01/30 07:23:51;;;;;;;57.53;33.05;;;;;;;-144.47;100.00;61586.06;4951790;29;20051;-72
2022/01/30 07:26:17;;;;;;;54.70;32.22;;;;;;;-144.47;100.00;61586.06;4953017;28;20050;-72
2022/01/30 07:28:42;;;;;;;56.50;32.88;;;;;;;-144.47;100.00;61586.06;4953606;28;20415;-73
2022/01/30 07:31:08;;;;;;;55.10;32.75;;;;;;;-144.47;100.00;61586.06;4953322;28;20483;-72
2022/01/30 07:33:35;;;;;;;53.60;32.67;;;;;;;-144.47;100.00;61586.06;4953210;28;20047;-73
2022/01/30 07:36:01;;;;;;;55.92;33.30;;;;;;;-144.47;100.00;61586.06;4952711;28;20114;-74
2022/01/30 07:38:28;;;;;;;56.42;33.55;;;;;;;-144.47;100.00;61586.06;4952157;28;20090;-73
2022/01/30 07:40:53;;;;;;;56.35;32.28;;;;;;;-144.47;100.00;61586.06;4941800;28;20420;-72
2022/01/30 07:43:19;;;;;;;57.13;33.33;;;;;;;-144.47;100.00;61586.06;4944810;28;20095;-72
2022/01/30 07:45:53;;;;;;;52.92;32.65;;;;;;;-144.47;100.00;61586.06;4940009;29;20039;-71
2022/01/30 07:48:19;;;;;;;56.83;32.75;;;;;;;-144.47;100.00;61586.06;4943561;28;20735;-71
2022/01/30 07:50:44;;;;;;;59.83;32.47;;;;;;;-144.47;100.00;61586.06;4944950;29;20028;-72
2022/01/30 07:53:11;;;;;;;53.53;32.13;;;;;;;-144.47;100.00;61586.06;4940843;28;20452;-72
2022/01/30 07:55:36;;;;;;;54.65;32.58;;;;;;;-144.47;100.00;61586.06;4940375;29;20429;-72
2022/01/30 07:58:02;;;;;;;58.47;33.97;;;;;;;-144.47;100.00;61586.06;4943732;28;20066;-71
2022/01/30 08:00:27;;;;;;;58.55;33.40;;;;;;;-144.47;100.00;61586.06;4941306;29;20506;-72
2022/01/30 08:02:53;;;;;;;60.63;35.85;;;;;;;-144.47;100.00;61586.06;4941417;29;20036;-72
2022/01/30 08:05:18;;;;;;;66.25;34.55;;;;;;;-144.47;100.00;61586.06;4606018;28;10000274;-72
2022/01/30 08:07:44;;;;;;;56.15;32.47;;;;;;;-144.47;100.00;61586.06;4964496;28;20031;-72
2022/01/30 08:10:09;;;;;;;56.28;33.05;;;;;;;-144.47;100.00;61586.06;4948607;28;20082;-73
2022/01/30 08:12:36;;;;;;;53.65;32.17;;;;;;;-144.47;100.00;61586.06;4949875;28;20547;-73
2022/01/30 08:15:02;;;;;;;55.55;33.90;;;;;;;-144.47;100.00;61586.06;4942142;28;20549;-73
2022/01/30 08:17:28;;;;;;;53.08;32.40;;;;;;;-144.47;100.00;61586.06;4940465;28;20047;-73
2022/01/30 08:19:53;;;;;;;54.08;32.58;;;;;;;-144.47;100.00;61586.06;4939566;28;20027;-73
2022/01/30 08:22:19;;;;;;;51.45;31.55;;;;;;;-144.47;100.00;61586.06;4940095;28;20575;-73
2022/01/30 08:24:44;;;;;;;49.15;31.30;;;;;;;-144.47;100.00;61586.06;4938783;29;20100;-71
2022/01/30 08:27:10;;;;;;;52.80;32.05;;;;;;;-144.47;100.00;61586.06;4938870;28;20035;-75
2022/01/30 08:29:35;;;;;;;52.58;32.75;;;;;;;-144.47;100.00;61586.06;4938217;28;20042;-74
2022/01/30 08:32:01;;;;;;;54.42;32.17;;;;;;;-144.47;100.00;61586.06;4938214;29;20050;-73
2022/01/30 08:34:27;;;;;;;51.50;33.75;;;;;;;-144.47;100.00;61586.06;4939179;28;20069;-74
2022/01/30 08:36:52;;;;;;;55.67;32.33;;;;;;;-144.47;100.00;61586.06;4937894;28;20126;-74
2022/01/30 08:39:18;;;;;;;53.65;34.42;;;;;;;-144.47;100.00;61586.06;4937571;29;20028;-73
2022/01/30 08:41:44;;;;;;;53.03;32.70;;;;;;;-144.47;100.00;61586.06;4938053;28;20050;-73
2022/01/30 08:44:10;;;;;;;54.35;32.72;;;;;;;-144.47;100.00;61586.06;4935797;29;20089;-73
2022/01/30 08:46:35;;;;;;;55.25;34.15;;;;;;;-144.47;100.00;61586.06;4942500;29;20035;-74
2022/01/30 08:49:01;;;;;;;52.40;32.58;;;;;;;-144.47;100.00;61586.06;4943777;28;20486;-73
2022/01/30 08:51:26;;;;;;;50.05;31.88;;;;;;;-144.47;100.00;61586.06;4944393;28;20114;-72
2022/01/30 08:53:52;;;;;;;59.28;31.73;;;;;;;-144.47;100.00;61586.06;4944070;28;20407;-74
2022/01/30 08:56:18;;;;;;;53.50;32.30;;;;;;;-144.47;100.00;61586.06;4934249;28;20058;-75
2022/01/30 08:58:44;;;;;;;53.78;31.73;;;;;;;-144.47;100.00;61586.06;4941111;28;20042;-73
2022/01/30 09:01:12;;;;;;;54.70;33.08;;;;;;;-144.47;100.00;61586.06;4938673;28;20035;-74
2022/01/30 09:03:37;;;;;;;50.03;31.50;;;;;;;-144.47;100.00;61586.06;4947978;29;20447;-75
2022/01/30 09:06:03;;;;;;;53.67;33.60;;;;;;;-144.47;100.00;61586.06;4938879;28;20106;-73
2022/01/30 09:08:29;;;;;;;52.38;32.90;;;;;;;-144.47;100.00;61586.06;4938857;29;20039;-74
2022/01/30 09:10:57;;;;;;;49.83;32.92;;;;;;;-144.47;100.00;61586.06;4940862;29;20041;-73
2022/01/30 09:13:23;;;;;;;49.42;33.10;;;;;;;-144.47;100.00;61586.06;4937107;29;20051;-76
2022/01/30 09:15:48;;;;;;;50.05;32.17;;;;;;;-144.47;100.00;61586.06;4272585;28;10000729;-73
2022/01/30 09:18:17;;;;;;;48.17;31.45;;;;;;;-144.47;100.00;61586.06;4943473;28;20024;-72
2022/01/30 09:20:42;;;;;;;48.50;32.03;;;;;;;-144.47;100.00;61586.06;4958325;28;20031;-74
2022/01/30 09:23:10;;;;;;;52.03;30.77;;;;;;;-144.47;100.00;61586.06;4941553;28;20404;-74
2022/01/30 09:25:37;;;;;;;52.00;31.73;;;;;;;-144.47;100.00;61586.06;4941737;29;20052;-75
2022/01/30 09:28:03;;;;;;;48.30;31.40;;;;;;;-144.47;100.00;61586.06;4942469;28;20093;-74
2022/01/30 09:30:29;;;;;;;51.50;31.00;;;;;;;-144.47;100.00;61586.06;4940860;29;20496;-75
2022/01/30 09:32:54;;;;;;;45.15;30.75;;;;;;;-144.47;100.00;61586.06;4943651;28;20027;-75
2022/01/30 09:35:20;;;;;;;49.47;31.25;;;;;;;-144.47;100.00;61586.06;4938764;29;20067;-74
2022/01/30 09:37:45;;;;;;;47.72;30.67;;;;;;;-144.47;100.00;61586.06;4943039;29;20076;-74
2022/01/30 09:40:13;;;;;;;49.97;30.25;;;;;;;-144.47;100.00;61586.06;4941024;28;20078;-74
2022/01/30 09:42:43;;;;;;;48.88;30.35;;;;;;;-144.47;100.00;61586.06;4943123;29;20057;-75
2022/01/30 09:45:10;;;;;;;49.08;30.88;;;;;;;-144.47;100.00;61586.06;4948506;29;20027;-74
2022/01/30 09:47:36;;;;;;;45.38;30.05;;;;;;;-144.47;100.00;61586.06;4950933;28;20047;-74
2022/01/30 09:50:04;;;;;;;48.42;30.67;;;;;;;-144.47;100.00;61586.06;4951372;28;20039;-75
2022/01/30 09:52:29;;;;;;;49.97;30.42;;;;;;;-144.47;100.00;61586.06;4951569;28;20094;-74
2022/01/30 09:54:55;;;;;;;48.95;30.95;;;;;;;-144.47;100.00;61586.06;4951114;28;20062;-74
2022/01/30 09:57:20;;;;;;;48.22;30.52;;;;;;;-144.47;100.00;61586.06;4948847;29;20054;-74
2022/01/30 09:59:46;;;;;;;51.05;30.73;;;;;;;-144.47;100.00;61586.06;4950817;28;20031;-73
2022/01/30 10:02:12;;;;;;;45.05;28.17;;;;;;;-144.47;100.00;61586.06;4950666;28;20043;-74
2022/01/30 10:04:39;;;;;;;46.35;27.85;;;;;;;-144.47;100.00;61586.06;4951032;28;20042;-75
2022/01/30 10:07:14;;;;;;;43.53;28.98;;;;;;;-144.47;100.00;61586.06;4947111;28;20039;-74
2022/01/30 10:09:48;;;;;;;40.05;28.13;;;;;;;-144.47;100.00;61586.06;4940151;28;20545;-74
2022/01/30 10:12:19;;;;;;;45.05;28.52;;;;;;;-144.47;100.00;61586.06;4941574;29;20172;-75
2022/01/30 10:14:53;;;;;;;41.10;27.70;;;;;;;-144.47;100.00;61586.06;4939903;28;20058;-75
2022/01/30 10:17:32;;;;;;;39.15;25.75;;;;;;;-144.47;100.00;61586.06;4944944;28;20035;-76
2022/01/30 10:20:16;;;;;;;37.35;25.67;;;;;;;-144.47;100.00;61586.06;4945361;28;20140;-77
2022/01/30 10:22:53;;;;;;;37.60;25.30;;;;;;;-144.47;100.00;61586.06;4943981;28;20051;-77
2022/01/30 10:25:20;;;;;;;40.00;25.65;;;;;;;-144.47;100.00;61586.06;4956140;28;20109;-77
2022/01/30 10:27:46;;;;;;;42.72;25.40;;;;;;;-144.47;100.00;61586.06;4950975;28;20023;-77
2022/01/30 10:30:12;;;;;;;39.15;25.50;;;;;;;-144.47;100.00;61586.06;4946022;29;20403;-77
2022/01/30 10:32:37;;;;;;;40.95;26.08;;;;;;;-144.47;100.00;61586.06;4952017;28;20039;-77
2022/01/30 10:35:06;;;;;;;38.20;26.45;;;;;;;-144.47;100.00;61586.06;4944367;28;20071;-76
2022/01/30 10:37:33;;;;;;;44.38;25.67;;;;;;;-144.47;100.00;61586.06;4940330;29;20039;-76
2022/01/30 10:40:10;;;;;;;35.35;25.05;;;;;;;-144.47;100.00;61586.06;4943962;28;20035;-75
2022/01/30 10:42:48;;;;;;;40.17;26.23;;;;;;;-144.47;100.00;61586.06;4942115;29;20066;-75
2022/01/30 10:45:25;;;;;;;38.97;24.95;;;;;;;-144.47;100.00;61586.06;4950818;29;20043;-75
2022/01/30 10:48:07;;;;;;;38.25;25.00;;;;;;;-144.47;100.00;61586.06;4942065;28;20038;-78
2022/01/30 10:50:33;;;;;;;40.33;24.48;;;;;;;-144.47;100.00;61586.06;4941183;28;20032;-75
2022/01/30 10:53:03;;;;;;;34.72;23.75;;;;;;;-144.47;100.00;61586.06;4941025;29;20023;-76
2022/01/30 10:55:31;;;;;;;34.17;23.92;;;;;;;-144.47;100.00;61586.06;4941428;29;20028;-76
2022/01/30 10:58:00;;;;;;;37.30;23.65;;;;;;;-144.47;100.00;61586.06;4940981;29;20028;-77
2022/01/30 11:00:55;;;;;;;38.75;23.90;;;;;;;-144.47;100.00;61586.06;4939007;28;20027;-76
2022/01/30 11:03:45;;;;;;;35.00;23.27;;;;;;;-144.47;100.00;61586.06;4941150;29;20039;-75
2022/01/30 11:06:13;;;;;;;34.60;22.95;;;;;;;-144.47;100.00;61586.06;4945553;29;20389;-74
2022/01/30 11:08:42;;;;;;;32.63;21.92;;;;;;;-144.47;100.00;61586.06;4939020;29;20115;-73
2022/01/30 11:11:26;;;;;;;31.52;22.00;;;;;;;-144.47;100.00;61586.06;4949795;29;20035;-74
2022/01/30 11:19:20;;;;;;;34.25;20.73;;;;;;;-144.47;100.00;61586.06;4942765;29;20039;-74
2022/01/30 11:21:51;;;;;;;32.92;20.75;;;;;;;-144.47;100.00;61586.06;4941877;28;20507;-73
2022/01/30 11:24:19;;;;;;;31.15;20.08;;;;;;;-144.47;100.00;61586.06;4940931;28;20035;-75
2022/01/30 11:26:46;;;;;;;30.13;19.38;;;;;;;-144.47;100.00;61586.06;4942627;29;20046;-74
2022/01/30 11:29:14;;;;;;;32.13;20.52;;;;;;;-144.47;100.00;61586.06;4940859;28;20035;-74
2022/01/30 11:31:40;;;;;;;29.13;19.75;;;;;;;-144.47;100.00;61586.06;4940686;29;20066;-75
2022/01/30 11:34:06;;;;;;;31.08;20.65;;;;;;;-144.47;100.00;61586.06;4938994;29;20039;-73
2022/01/30 11:36:43;;;;;;;32.13;19.77;;;;;;;-144.47;100.00;61586.06;4948073;29;20729;-74
2022/01/30 11:39:14;;;;;;;28.20;18.90;;;;;;;-144.47;100.00;61586.06;4948773;28;20584;-72
2022/01/30 11:41:40;;;;;;;26.63;18.00;;;;;;;-144.47;100.00;61586.06;4943001;28;20039;-76
2022/01/30 11:44:17;;;;;;;24.27;16.90;;;;;;;-144.47;100.00;61586.06;4940471;28;20036;-74
2022/01/30 11:46:43;;;;;;;28.65;16.80;;;;;;;-144.47;100.00;61586.06;4937126;29;20098;-74
2022/01/30 11:49:14;;;;;;;24.83;16.55;;;;;;;-144.47;100.00;61586.06;4262988;28;10000599;-73
2022/01/30 11:51:49;;;;;;;25.38;16.10;;;;;;;-144.47;100.00;61586.06;4942276;28;20043;-75
2022/01/30 11:54:40;;;;;;;19.02;14.23;;;;;;;-144.47;100.00;61586.06;4945241;28;20368;-76
2022/01/30 11:57:25;;;;;;;21.08;15.00;;;;;;;-144.47;100.00;61586.06;4941063;29;20432;-75
2022/01/30 12:00:32;;;;;;;20.23;14.98;;;;;;;-144.47;100.00;61586.06;4939065;29;20032;-75
2022/01/30 12:03:38;;;;;;;22.80;15.98;;;;;;;-144.47;100.00;61586.06;4939920;29;20032;-75
2022/01/30 12:06:21;;;;;;;25.33;17.23;;;;;;;-144.47;100.00;61586.06;4941212;29;20059;-75
2022/01/30 12:08:47;;;;;;;24.48;14.98;;;;;;;-144.47;100.00;61586.06;4940857;29;20036;-75
2022/01/30 12:11:34;;;;;;;24.25;16.40;;;;;;;-144.47;100.00;61586.06;4944218;28;20074;-74